Time;durP1;ratioP1;P1;durP2;ratioP2;P2;SDS_P1;SDS_P2;PMS_P1;PMS_P2;Temp;Humidity;BMP_temperature;BMP_pressure;BME280_temperature;BME280_humidity;BME280_pressure;Samples;Min_cycle;Max_cycle;Signal;HPM_P1;HPM_P2
2022/09/23 00:01:08;;;;;;;11.40;7.23;;;12.90;99.90;;;;;;5028344;28;20225;-52
2022/09/23 00:03:37;;;;;;;10.73;8.37;;;12.90;99.90;;;;;;5026796;28;20202;-52
2022/09/23 00:06:07;;;;;;;11.83;9.07;;;12.80;99.90;;;;;;5017455;28;20207;-51
2022/09/23 00:08:34;;;;;;;10.37;8.23;;;12.90;99.90;;;;;;5018204;28;20198;-52
2022/09/23 00:11:07;;;;;;;11.77;8.53;;;12.90;99.90;;;;;;5017740;28;20271;-52
2022/09/23 00:13:36;;;;;;;12.10;8.40;;;12.90;99.90;;;;;;5025264;28;20199;-52
2022/09/23 00:16:08;;;;;;;11.33;8.30;;;12.90;99.90;;;;;;5023852;28;20428;-52
2022/09/23 00:18:35;;;;;;;9.93;8.20;;;12.90;99.90;;;;;;5028147;28;20705;-54
2022/09/23 00:21:04;;;;;;;12.30;8.00;;;12.80;99.90;;;;;;5021553;28;20203;-52
2022/09/23 00:23:32;;;;;;;10.00;7.73;;;12.80;99.90;;;;;;5024199;28;20225;-53
2022/09/23 00:26:01;;;;;;;9.23;7.90;;;12.80;99.90;;;;;;5024427;28;20197;-52
2022/09/23 00:28:29;;;;;;;10.60;8.67;;;12.80;99.90;;;;;;5029875;28;20565;-52
2022/09/23 00:30:55;;;;;;;11.23;8.20;;;12.80;99.90;;;;;;5028503;28;20303;-53
2022/09/23 00:33:22;;;;;;;10.30;8.17;;;12.80;99.90;;;;;;5028701;28;20233;-53
2022/09/23 00:35:49;;;;;;;11.80;8.10;;;12.70;99.90;;;;;;5028794;28;20296;-53
2022/09/23 00:38:16;;;;;;;8.97;8.07;;;12.70;99.90;;;;;;5021526;28;20202;-52
2022/09/23 00:40:48;;;;;;;10.90;7.60;;;12.60;99.90;;;;;;5026283;28;20309;-53
2022/09/23 00:43:16;;;;;;;8.33;7.13;;;12.70;99.90;;;;;;5030047;28;20614;-52
2022/09/23 00:45:48;;;;;;;9.57;8.23;;;12.60;99.90;;;;;;5032518;28;20313;-52
2022/09/23 00:48:19;;;;;;;10.77;7.57;;;12.60;99.90;;;;;;5023528;28;20259;-52
2022/09/23 00:50:53;;;;;;;11.20;7.57;;;12.60;99.90;;;;;;5016257;28;20244;-53
2022/09/23 00:53:25;;;;;;;9.10;6.57;;;12.70;99.90;;;;;;5016822;28;20210;-53
2022/09/23 00:55:59;;;;;;;10.00;7.57;;;12.60;99.90;;;;;;5018546;28;20202;-52
2022/09/23 00:58:30;;;;;;;8.73;7.10;;;12.60;99.90;;;;;;5029028;28;20660;-52
2022/09/23 01:01:01;;;;;;;9.40;8.43;;;12.60;99.90;;;;;;5022746;28;20232;-52
2022/09/23 01:03:29;;;;;;;9.57;7.50;;;12.50;99.90;;;;;;5028460;28;20209;-53
2022/09/23 01:05:57;;;;;;;8.03;7.23;;;12.50;99.90;;;;;;5026706;28;20212;-52
2022/09/23 01:08:25;;;;;;;8.20;7.13;;;12.50;99.90;;;;;;5016991;28;20204;-53
2022/09/23 01:11:10;;;;;;;8.90;7.10;;;12.40;99.90;;;;;;5024425;28;20228;-53
2022/09/23 01:14:05;;;;;;;9.67;7.33;;;12.40;99.90;;;;;;5018046;28;20213;-52
2022/09/23 01:16:42;;;;;;;9.27;7.57;;;12.40;99.90;;;;;;5034405;28;20204;-52
2022/09/23 01:19:36;;;;;;;10.73;7.47;;;12.40;99.90;;;;;;5017789;28;20212;-53
2022/09/23 01:22:15;;;;;;;8.83;7.63;;;12.40;99.90;;;;;;5047355;28;20284;-53
2022/09/23 01:24:54;;;;;;;11.57;7.37;;;12.30;99.90;;;;;;5028657;28;20201;-52
2022/09/23 01:27:58;;;;;;;9.63;7.63;;;12.30;99.90;;;;;;5027866;28;20203;-53
2022/09/23 01:30:47;;;;;;;8.20;6.67;;;12.30;99.90;;;;;;5028038;28;20576;-53
2022/09/23 01:33:38;;;;;;;8.57;7.20;;;12.20;99.90;;;;;;5026507;28;20594;-54
2022/09/23 01:36:20;;;;;;;9.97;7.90;;;12.20;99.90;;;;;;5023390;28;20201;-54
2022/09/23 01:39:02;;;;;;;9.50;7.60;;;12.20;99.90;;;;;;5024013;28;20201;-52
2022/09/23 01:41:28;;;;;;;8.73;7.70;;;12.10;99.90;;;;;;5028483;28;20201;-53
2022/09/23 01:44:08;;;;;;;7.93;7.13;;;12.10;99.90;;;;;;5029058;28;20215;-53
2022/09/23 01:46:56;;;;;;;9.83;8.00;;;12.10;99.90;;;;;;5022668;28;20369;-53
2022/09/23 01:49:44;;;;;;;10.27;8.30;;;12.10;99.90;;;;;;5026650;28;20201;-52
2022/09/23 01:52:29;;;;;;;8.73;7.70;;;12.10;99.90;;;;;;5025078;28;20275;-53
2022/09/23 01:55:10;;;;;;;10.17;7.60;;;12.10;99.90;;;;;;5019326;28;20224;-53
2022/09/23 01:57:43;;;;;;;9.60;7.47;;;12.10;99.90;;;;;;5016352;28;20584;-52
2022/09/23 02:00:16;;;;;;;8.93;7.97;;;12.20;99.90;;;;;;5017301;28;20734;-53
2022/09/23 02:02:56;;;;;;;9.17;7.33;;;12.20;99.90;;;;;;5030338;28;20228;-52
2022/09/23 02:05:58;;;;;;;9.07;7.73;;;12.20;99.90;;;;;;5030383;28;20215;-52
2022/09/23 02:08:40;;;;;;;13.03;7.97;;;12.10;99.90;;;;;;5028586;28;20216;-51
2022/09/23 02:11:14;;;;;;;10.40;7.70;;;12.10;99.90;;;;;;5026795;28;20217;-52
2022/09/23 02:13:46;;;;;;;9.57;8.33;;;12.10;99.90;;;;;;5032654;28;20646;-52
2022/09/23 02:16:38;;;;;;;12.27;8.60;;;12.10;99.90;;;;;;5029595;28;20656;-52
2022/09/23 02:19:26;;;;;;;8.93;7.50;;;12.10;99.90;;;;;;5018227;28;20202;-53
2022/09/23 02:22:06;;;;;;;9.00;7.70;;;12.10;99.90;;;;;;5019254;28;20197;-52
2022/09/23 02:24:37;;;;;;;9.57;7.67;;;12.20;99.90;;;;;;5012415;28;20201;-52
2022/09/23 02:27:25;;;;;;;9.63;7.80;;;12.10;99.90;;;;;;5030117;28;20201;-51
2022/09/23 02:30:04;;;;;;;9.90;8.13;;;12.00;99.90;;;;;;5029436;28;20235;-52
2022/09/23 02:32:49;;;;;;;9.33;7.80;;;12.10;99.90;;;;;;5016629;28;20221;-52
2022/09/23 02:35:22;;;;;;;12.13;9.00;;;12.10;99.90;;;;;;5019010;28;20520;-52
2022/09/23 02:38:07;;;;;;;9.57;8.07;;;12.10;99.90;;;;;;5021973;28;20499;-52
2022/09/23 02:40:40;;;;;;;10.40;7.63;;;12.10;99.90;;;;;;5017586;28;20202;-52
2022/09/23 02:43:23;;;;;;;10.30;8.93;;;12.00;99.90;;;;;;5020572;28;20218;-53
2022/09/23 02:45:50;;;;;;;10.60;7.30;;;11.90;99.90;;;;;;5023659;28;20212;-52
2022/09/23 02:48:24;;;;;;;10.50;7.47;;;11.90;99.90;;;;;;5014155;28;21051;-52
2022/09/23 02:50:53;;;;;;;10.57;7.60;;;11.90;99.90;;;;;;5014583;28;20692;-50
2022/09/23 02:53:22;;;;;;;9.90;8.50;;;11.90;99.90;;;;;;5024118;28;20209;-52
2022/09/23 02:55:49;;;;;;;8.73;7.77;;;11.80;99.90;;;;;;5029148;28;20197;-52
2022/09/23 02:58:16;;;;;;;8.53;7.60;;;11.90;99.90;;;;;;5009592;28;20294;-52
2022/09/23 03:01:25;;;;;;;10.77;7.77;;;11.80;99.90;;;;;;5018793;28;20199;-52
2022/09/23 03:04:20;;;;;;;9.43;7.53;;;11.80;99.90;;;;;;5025675;28;20291;-52
2022/09/23 03:07:02;;;;;;;9.40;7.13;;;11.70;99.90;;;;;;5013514;28;20208;-53
2022/09/23 03:09:31;;;;;;;10.27;7.57;;;11.70;99.90;;;;;;5020207;28;20628;-53
2022/09/23 03:12:23;;;;;;;10.20;7.57;;;11.70;99.90;;;;;;5028586;28;20200;-52
2022/09/23 03:15:00;;;;;;;9.83;7.80;;;11.80;99.90;;;;;;5018477;28;20192;-53
2022/09/23 03:17:27;;;;;;;8.77;7.30;;;11.90;99.90;;;;;;5021995;28;20197;-54
2022/09/23 03:20:04;;;;;;;8.27;7.27;;;11.80;99.90;;;;;;5026703;28;20346;-53
2022/09/23 03:22:38;;;;;;;9.07;7.43;;;11.80;99.90;;;;;;5024026;28;20214;-53
2022/09/23 03:25:10;;;;;;;10.23;7.57;;;11.70;99.90;;;;;;5017173;28;20592;-54
2022/09/23 03:27:41;;;;;;;9.20;8.20;;;11.70;99.90;;;;;;5024711;28;20283;-53
2022/09/23 03:30:09;;;;;;;9.80;7.37;;;11.70;99.90;;;;;;5017539;28;20618;-52
2022/09/23 03:32:38;;;;;;;9.23;7.23;;;11.80;99.90;;;;;;5016053;28;20247;-52
2022/09/23 03:35:05;;;;;;;9.93;7.30;;;11.80;99.90;;;;;;5023000;28;20291;-52
2022/09/23 03:37:42;;;;;;;8.67;7.60;;;11.80;99.90;;;;;;5021524;28;20700;-52
2022/09/23 03:40:28;;;;;;;13.07;7.77;;;11.70;99.90;;;;;;5024833;28;20208;-52
2022/09/23 03:42:57;;;;;;;9.63;7.47;;;11.60;99.90;;;;;;5027427;28;20528;-53
2022/09/23 03:45:29;;;;;;;9.03;7.27;;;11.60;99.90;;;;;;5021650;28;20540;-53
2022/09/23 03:47:56;;;;;;;9.47;7.60;;;11.60;99.90;;;;;;5021740;28;20740;-55
2022/09/23 03:50:23;;;;;;;8.87;7.57;;;11.70;99.90;;;;;;5021072;28;20304;-54
2022/09/23 03:52:50;;;;;;;10.53;8.30;;;11.60;99.90;;;;;;5022721;28;20223;-53
2022/09/23 03:55:18;;;;;;;11.50;8.20;;;11.70;99.90;;;;;;5030003;28;20546;-53
2022/09/23 03:57:45;;;;;;;10.77;7.87;;;11.50;99.90;;;;;;5027493;28;20258;-53
2022/09/23 04:00:13;;;;;;;8.60;7.23;;;11.60;99.90;;;;;;5024517;28;20205;-54
2022/09/23 04:02:41;;;;;;;9.53;7.63;;;11.60;99.90;;;;;;5028757;28;20224;-52
2022/09/23 04:05:08;;;;;;;12.23;7.40;;;11.60;99.90;;;;;;5026999;28;20209;-52
2022/09/23 04:07:35;;;;;;;9.90;7.07;;;11.50;99.90;;;;;;5019781;28;20203;-53
2022/09/23 04:10:03;;;;;;;9.50;7.57;;;11.60;99.90;;;;;;5026949;28;20204;-52
2022/09/23 04:12:30;;;;;;;9.63;7.80;;;11.60;99.90;;;;;;5032434;28;20193;-52
2022/09/23 04:14:57;;;;;;;10.93;7.47;;;11.40;99.90;;;;;;5018370;28;20320;-53
2022/09/23 04:17:24;;;;;;;8.43;7.50;;;11.40;99.90;;;;;;5021628;28;20204;-53
2022/09/23 04:19:51;;;;;;;8.97;7.60;;;11.50;99.90;;;;;;5025213;28;20550;-53
2022/09/23 04:22:17;;;;;;;11.83;7.90;;;11.40;99.90;;;;;;5024819;28;20791;-54
2022/09/23 04:24:44;;;;;;;10.63;7.47;;;11.50;99.90;;;;;;5027197;28;20199;-53
2022/09/23 04:27:11;;;;;;;9.63;8.00;;;11.40;99.90;;;;;;5020865;28;20218;-53
2022/09/23 04:29:38;;;;;;;9.73;7.87;;;11.50;99.90;;;;;;5025173;28;20197;-54
2022/09/23 04:32:04;;;;;;;9.90;7.50;;;11.50;99.90;;;;;;5025597;28;20770;-53
2022/09/23 04:34:31;;;;;;;9.70;7.90;;;11.50;99.90;;;;;;5019298;28;20381;-53
2022/09/23 04:36:58;;;;;;;13.20;7.93;;;11.50;99.90;;;;;;5026643;28;20235;-54
2022/09/23 04:39:25;;;;;;;9.40;7.60;;;11.40;99.90;;;;;;5016751;28;20205;-53
2022/09/23 04:41:52;;;;;;;9.50;8.40;;;11.50;99.90;;;;;;5018907;28;20197;-53
2022/09/23 04:44:20;;;;;;;10.03;7.50;;;11.50;99.90;;;;;;5026081;28;20663;-53
2022/09/23 04:46:46;;;;;;;12.97;8.10;;;11.40;99.90;;;;;;5025874;28;20226;-53
2022/09/23 04:49:15;;;;;;;11.00;8.03;;;11.40;99.90;;;;;;5026311;28;20241;-53
2022/09/23 04:51:42;;;;;;;10.70;8.03;;;11.50;99.90;;;;;;5026977;28;20219;-54
2022/09/23 04:54:11;;;;;;;11.90;8.30;;;11.50;99.90;;;;;;5019878;28;20205;-53
2022/09/23 04:56:38;;;;;;;10.70;7.93;;;11.50;99.90;;;;;;5022371;28;20204;-54
2022/09/23 04:59:06;;;;;;;11.70;8.20;;;11.50;99.90;;;;;;5029894;28;20205;-54
2022/09/23 05:01:34;;;;;;;10.97;7.70;;;11.50;99.90;;;;;;5030497;28;20323;-53
2022/09/23 05:04:05;;;;;;;12.83;8.47;;;11.50;99.90;;;;;;5027748;28;20201;-53
2022/09/23 05:06:33;;;;;;;10.10;7.70;;;11.60;99.90;;;;;;5023755;28;20217;-52
2022/09/23 05:09:01;;;;;;;9.90;8.30;;;11.70;99.90;;;;;;5027436;28;20290;-54
2022/09/23 05:11:30;;;;;;;11.77;8.20;;;11.70;99.90;;;;;;5025081;28;20214;-54
2022/09/23 05:13:57;;;;;;;10.63;8.13;;;11.70;99.90;;;;;;5022549;28;20225;-53
2022/09/23 05:16:25;;;;;;;11.97;8.27;;;11.70;99.90;;;;;;5018918;28;20219;-53
2022/09/23 05:18:52;;;;;;;12.47;8.50;;;11.60;99.90;;;;;;5015951;28;20227;-53
2022/09/23 05:21:22;;;;;;;9.37;7.73;;;11.60;99.90;;;;;;5020914;28;20205;-52
2022/09/23 05:23:55;;;;;;;10.80;8.03;;;11.60;99.90;;;;;;5016007;28;20205;-54
2022/09/23 05:26:24;;;;;;;11.30;7.80;;;11.60;99.90;;;;;;5020139;28;20205;-53
2022/09/23 05:28:52;;;;;;;9.67;8.00;;;11.70;99.90;;;;;;5016642;28;20757;-53
2022/09/23 05:31:22;;;;;;;9.87;8.10;;;11.80;99.90;;;;;;5017821;28;20210;-53
2022/09/23 05:33:51;;;;;;;10.53;7.77;;;11.80;99.90;;;;;;4659147;28;9999849;-53
2022/09/23 05:36:20;;;;;;;9.67;7.60;;;11.80;99.90;;;;;;5015309;28;20264;-54
2022/09/23 05:38:51;;;;;;;8.77;6.93;;;11.70;99.90;;;;;;5029491;28;20194;-53
2022/09/23 05:41:21;;;;;;;12.47;7.63;;;11.70;99.90;;;;;;5020222;28;20227;-52
2022/09/23 05:43:52;;;;;;;9.33;7.93;;;11.70;99.90;;;;;;5020327;28;20215;-53
2022/09/23 05:46:25;;;;;;;8.77;7.87;;;11.80;99.90;;;;;;5019753;28;20294;-54
2022/09/23 05:48:51;;;;;;;9.13;7.63;;;11.90;99.90;;;;;;5016531;28;20240;-52
2022/09/23 05:51:21;;;;;;;9.97;7.87;;;11.70;99.90;;;;;;5017470;28;21793;-51
2022/09/23 05:53:51;;;;;;;9.60;7.20;;;11.60;99.90;;;;;;5019476;28;20203;-52
2022/09/23 05:56:20;;;;;;;9.20;7.43;;;11.70;99.90;;;;;;5015781;28;20201;-55
2022/09/23 05:58:52;;;;;;;12.27;8.13;;;11.80;99.90;;;;;;5017768;28;20520;-57
2022/09/23 06:01:23;;;;;;;11.43;8.40;;;11.70;99.90;;;;;;5012487;28;20239;-53
2022/09/23 06:03:52;;;;;;;10.70;8.17;;;11.70;99.90;;;;;;5014617;28;20200;-54
2022/09/23 06:06:25;;;;;;;12.13;7.90;;;11.70;99.90;;;;;;5031094;28;20552;-53
2022/09/23 06:08:52;;;;;;;10.20;8.30;;;11.90;99.90;;;;;;5015352;28;20602;-54
2022/09/23 06:11:20;;;;;;;10.13;8.33;;;11.80;99.90;;;;;;5019075;28;20602;-54
2022/09/23 06:13:48;;;;;;;11.07;7.27;;;11.90;99.90;;;;;;5015151;28;20604;-54
2022/09/23 06:16:15;;;;;;;10.70;7.67;;;12.00;99.90;;;;;;5014818;28;20200;-54
2022/09/23 06:18:44;;;;;;;10.30;7.80;;;11.90;99.90;;;;;;5017876;28;20226;-53
2022/09/23 06:21:15;;;;;;;13.83;8.13;;;11.90;99.90;;;;;;5020172;28;20197;-54
2022/09/23 06:23:43;;;;;;;11.07;8.23;;;11.90;99.90;;;;;;5021043;28;20208;-54
2022/09/23 06:26:13;;;;;;;11.33;7.73;;;11.90;99.90;;;;;;5019511;28;20205;-54
2022/09/23 06:28:41;;;;;;;10.03;7.93;;;11.90;99.90;;;;;;5016320;28;20284;-53
2022/09/23 06:31:15;;;;;;;12.37;8.13;;;11.90;99.90;;;;;;5016478;28;20253;-54
2022/09/23 06:33:44;;;;;;;13.17;8.37;;;11.80;99.90;;;;;;5024413;28;20244;-53
2022/09/23 06:36:12;;;;;;;10.40;7.90;;;11.90;99.90;;;;;;5019965;28;20251;-52
2022/09/23 06:38:56;;;;;;;11.07;7.77;;;11.90;99.90;;;;;;5011965;28;20649;-54
2022/09/23 06:41:23;;;;;;;8.80;7.83;;;12.00;99.90;;;;;;5015578;28;20197;-53
2022/09/23 06:43:50;;;;;;;9.00;7.63;;;12.00;99.90;;;;;;5013703;28;20200;-53
2022/09/23 06:46:16;;;;;;;9.00;7.57;;;11.90;99.90;;;;;;5014554;28;20311;-53
2022/09/23 06:48:43;;;;;;;10.47;7.70;;;11.90;99.90;;;;;;5016209;28;20294;-53
2022/09/23 06:51:18;;;;;;;10.90;8.63;;;11.80;99.90;;;;;;5013592;28;20210;-52
2022/09/23 06:53:48;;;;;;;11.20;8.07;;;11.80;99.90;;;;;;5014047;28;20192;-54
2022/09/23 06:56:16;;;;;;;11.67;8.27;;;11.90;99.90;;;;;;5016239;28;20729;-53
2022/09/23 06:58:43;;;;;;;13.43;8.63;;;11.90;99.90;;;;;;5009934;28;20226;-53
2022/09/23 07:01:14;;;;;;;10.47;7.23;;;11.90;99.90;;;;;;5014282;28;20255;-53
2022/09/23 07:03:43;;;;;;;9.60;7.73;;;12.00;99.90;;;;;;5014207;28;20609;-53
2022/09/23 07:06:10;;;;;;;12.63;7.57;;;12.10;99.90;;;;;;5014929;28;20239;-57
2022/09/23 07:08:37;;;;;;;14.37;8.77;;;12.20;99.90;;;;;;5012992;28;20291;-52
2022/09/23 07:11:06;;;;;;;11.80;7.73;;;12.20;99.90;;;;;;5013168;28;20574;-55
2022/09/23 07:13:33;;;;;;;9.90;7.93;;;12.10;99.90;;;;;;5012991;28;20284;-66
2022/09/23 07:16:00;;;;;;;11.33;8.03;;;12.20;99.90;;;;;;5008985;28;20201;-53
2022/09/23 07:18:30;;;;;;;9.27;7.70;;;12.30;99.90;;;;;;5017238;28;20669;-54
2022/09/23 07:21:14;;;;;;;14.33;7.93;;;12.20;99.90;;;;;;5018202;28;20198;-53
2022/09/23 07:23:47;;;;;;;8.60;7.30;;;12.30;99.90;;;;;;5012584;28;20283;-52
2022/09/23 07:26:15;;;;;;;11.10;8.33;;;12.40;99.90;;;;;;5010982;28;20207;-52
2022/09/23 07:28:42;;;;;;;11.07;8.03;;;12.20;99.90;;;;;;5009608;28;20228;-52
2022/09/23 07:31:13;;;;;;;11.50;8.03;;;12.40;99.90;;;;;;5010568;28;20872;-55
2022/09/23 07:33:43;;;;;;;10.77;7.70;;;12.50;99.90;;;;;;5011888;28;20216;-54
2022/09/23 07:36:16;;;;;;;8.57;6.70;;;12.50;99.90;;;;;;5013741;28;20657;-54
2022/09/23 07:38:44;;;;;;;10.43;7.90;;;12.60;99.90;;;;;;5013224;28;20205;-53
2022/09/23 07:41:14;;;;;;;8.80;7.30;;;12.70;99.90;;;;;;5011493;28;20604;-52
2022/09/23 07:43:42;;;;;;;9.33;6.87;;;12.80;99.90;;;;;;5026961;28;20202;-53
2022/09/23 07:46:16;;;;;;;9.77;7.60;;;12.80;99.90;;;;;;5009280;28;20233;-52
2022/09/23 07:48:44;;;;;;;10.47;7.13;;;12.60;99.90;;;;;;5016765;28;20243;-52
2022/09/23 07:51:17;;;;;;;12.50;8.27;;;12.50;99.90;;;;;;5015225;28;20261;-53
2022/09/23 07:53:51;;;;;;;8.50;7.30;;;12.50;99.90;;;;;;5011249;28;20665;-52
2022/09/23 07:56:21;;;;;;;11.23;7.20;;;12.40;99.90;;;;;;5015268;28;20188;-54
2022/09/23 07:59:02;;;;;;;11.67;8.03;;;12.50;99.90;;;;;;5011851;28;20239;-53
2022/09/23 08:01:41;;;;;;;8.73;7.20;;;12.70;99.90;;;;;;5012536;28;20229;-53
2022/09/23 08:04:12;;;;;;;9.43;7.43;;;12.80;99.90;;;;;;5029327;28;20219;-52
2022/09/23 08:06:43;;;;;;;8.83;7.20;;;12.90;99.90;;;;;;5013777;28;20207;-53
2022/09/23 08:09:11;;;;;;;8.83;7.43;;;12.90;99.90;;;;;;5014028;28;20244;-52
2022/09/23 08:11:40;;;;;;;11.27;7.23;;;13.10;99.90;;;;;;5015666;28;20572;-52
2022/09/23 08:14:12;;;;;;;10.00;6.53;;;13.20;99.90;;;;;;5012074;28;20680;-52
2022/09/23 08:16:40;;;;;;;9.30;7.37;;;13.20;99.90;;;;;;5012020;28;20713;-53
2022/09/23 08:19:08;;;;;;;8.87;6.90;;;13.30;99.90;;;;;;5011559;28;20198;-53
2022/09/23 08:21:36;;;;;;;8.27;7.03;;;13.30;99.90;;;;;;5014179;28;20295;-52
2022/09/23 08:24:03;;;;;;;8.17;6.50;;;13.30;99.90;;;;;;5014199;28;20281;-53
2022/09/23 08:26:33;;;;;;;8.17;7.10;;;13.60;99.90;;;;;;5014922;28;20199;-53
2022/09/23 08:29:00;;;;;;;11.33;7.33;;;13.50;99.90;;;;;;5012892;28;20293;-53
2022/09/23 08:31:27;;;;;;;12.47;8.10;;;13.80;99.90;;;;;;5010906;28;20211;-54
2022/09/23 08:33:56;;;;;;;8.67;7.00;;;13.80;99.90;;;;;;5011291;28;20318;-53
2022/09/23 08:36:24;;;;;;;9.13;6.90;;;14.10;99.90;;;;;;5009151;28;20210;-53
2022/09/23 08:38:51;;;;;;;8.63;6.73;;;14.20;99.90;;;;;;5014565;28;20564;-53
2022/09/23 08:41:26;;;;;;;8.73;6.00;;;14.20;99.90;;;;;;5010884;28;20192;-53
2022/09/23 08:44:17;;;;;;;10.03;7.33;;;14.40;99.90;;;;;;5011468;28;20193;-52
2022/09/23 08:47:10;;;;;;;12.30;6.07;;;14.50;99.90;;;;;;5014588;28;20201;-53
2022/09/23 08:49:46;;;;;;;8.27;6.17;;;14.60;99.90;;;;;;5014870;28;20256;-53
2022/09/23 08:52:22;;;;;;;8.63;6.67;;;14.60;99.90;;;;;;5019372;28;20680;-53
2022/09/23 08:54:49;;;;;;;12.97;6.73;;;14.60;99.90;;;;;;5022904;28;20694;-53
2022/09/23 08:57:40;;;;;;;6.97;5.90;;;14.60;99.90;;;;;;5018097;28;20191;-53
2022/09/23 09:00:18;;;;;;;8.77;6.23;;;14.80;99.90;;;;;;5013966;28;20881;-53
2022/09/23 09:02:45;;;;;;;10.37;6.10;;;14.90;99.90;;;;;;5016635;28;20224;-52
2022/09/23 09:05:21;;;;;;;7.70;6.50;;;15.00;99.90;;;;;;5027388;28;20204;-53
2022/09/23 09:07:48;;;;;;;8.00;6.37;;;15.10;99.90;;;;;;5033298;28;20215;-54
2022/09/23 09:10:20;;;;;;;8.83;5.77;;;15.20;99.90;;;;;;5019943;28;20209;-53
2022/09/23 09:13:01;;;;;;;8.30;5.40;;;15.20;99.90;;;;;;5029497;28;20740;-52
2022/09/23 09:15:28;;;;;;;8.10;6.40;;;15.30;99.90;;;;;;5026421;28;20217;-53
2022/09/23 09:18:11;;;;;;;10.17;6.77;;;15.20;99.90;;;;;;5029455;28;20198;-53
2022/09/23 09:20:49;;;;;;;9.43;6.40;;;15.40;99.90;;;;;;5026857;28;20861;-53
2022/09/23 09:23:22;;;;;;;9.97;6.57;;;15.50;99.90;;;;;;5030877;28;20672;-54
2022/09/23 09:25:55;;;;;;;7.70;5.23;;;15.60;99.90;;;;;;5028859;28;20223;-53
2022/09/23 09:28:50;;;;;;;10.57;5.90;;;15.70;99.90;;;;;;5025489;28;20633;-53
2022/09/23 09:31:32;;;;;;;12.07;5.80;;;15.90;99.90;;;;;;5033157;28;20682;-53
2022/09/23 09:34:02;;;;;;;8.27;5.80;;;16.10;99.90;;;;;;5030971;28;20210;-53
2022/09/23 09:36:41;;;;;;;6.63;5.27;;;16.20;99.90;;;;;;5023567;28;20629;-56
2022/09/23 09:39:12;;;;;;;8.27;5.70;;;16.30;99.90;;;;;;5033830;28;20655;-52
2022/09/23 09:41:47;;;;;;;7.50;4.83;;;16.30;99.90;;;;;;5035982;28;20656;-52
2022/09/23 09:44:23;;;;;;;6.93;4.90;;;16.50;99.90;;;;;;5028311;28;20282;-53
2022/09/23 09:47:10;;;;;;;7.07;4.97;;;16.50;99.90;;;;;;5023529;28;20203;-52
2022/09/23 09:49:52;;;;;;;7.77;5.10;;;16.50;99.90;;;;;;5021399;28;20217;-53
2022/09/23 09:52:25;;;;;;;6.00;4.50;;;16.60;99.90;;;;;;5024191;28;20223;-52
2022/09/23 09:54:55;;;;;;;7.97;4.53;;;16.60;99.90;;;;;;5023085;28;20317;-53
2022/09/23 09:57:37;;;;;;;5.90;4.20;;;16.60;99.90;;;;;;5024262;28;20198;-53
2022/09/23 10:00:41;;;;;;;5.93;4.30;;;16.70;99.90;;;;;;5019530;28;20201;-53
2022/09/23 10:03:31;;;;;;;8.93;5.00;;;16.80;99.90;;;;;;5022782;28;20258;-53
2022/09/23 10:05:59;;;;;;;5.93;4.27;;;16.90;99.90;;;;;;5016938;28;20235;-53
2022/09/23 10:08:34;;;;;;;8.37;4.57;;;16.90;99.90;;;;;;5023108;28;20200;-52
2022/09/23 10:11:04;;;;;;;5.50;3.77;;;16.90;99.90;;;;;;5023812;28;20214;-52
2022/09/23 10:13:31;;;;;;;8.37;3.83;;;16.90;99.90;;;;;;5024910;28;20219;-53
2022/09/23 10:16:01;;;;;;;6.20;3.50;;;17.10;99.90;;;;;;5028975;28;20667;-52
2022/09/23 10:18:48;;;;;;;7.93;4.37;;;17.10;99.90;;;;;;5020081;28;20198;-52
2022/09/23 10:21:19;;;;;;;9.87;4.30;;;17.10;99.90;;;;;;5021647;28;20284;-52
2022/09/23 10:23:56;;;;;;;7.97;4.20;;;17.10;99.90;;;;;;5021758;28;20679;-52
2022/09/23 10:26:50;;;;;;;6.73;3.70;;;17.10;99.90;;;;;;5020313;28;20672;-52
2022/09/23 10:29:38;;;;;;;7.90;3.90;;;17.10;99.90;;;;;;5020010;28;20569;-53
2022/09/23 10:32:26;;;;;;;7.07;3.73;;;17.20;99.90;;;;;;5025982;28;20222;-53
2022/09/23 10:35:00;;;;;;;6.77;3.73;;;17.20;99.90;;;;;;5017623;28;20659;-52
2022/09/23 10:37:47;;;;;;;9.00;4.07;;;17.20;99.90;;;;;;5019975;28;20199;-53
2022/09/23 10:46:44;;;;;;;5.60;3.53;;;17.50;99.90;;;;;;5022314;28;20668;-53
2022/09/23 10:49:37;;;;;;;5.67;3.37;;;17.60;99.90;;;;;;5025052;28;21003;-52
2022/09/23 10:52:30;;;;;;;8.73;4.20;;;17.60;99.90;;;;;;5015897;28;20226;-52
2022/09/23 10:55:20;;;;;;;6.43;3.27;;;17.70;99.90;;;;;;5013545;28;20232;-53
2022/09/23 10:58:21;;;;;;;6.37;3.70;;;17.60;99.90;;;;;;5011043;28;20210;-53
2022/09/23 11:01:27;;;;;;;4.83;3.47;;;17.70;99.90;;;;;;5016886;28;20664;-52
2022/09/23 11:04:18;;;;;;;5.13;2.97;;;17.60;99.90;;;;;;5010273;28;20336;-52
2022/09/23 11:06:53;;;;;;;4.57;2.80;;;17.60;99.90;;;;;;5014104;28;20204;-53
2022/09/23 11:10:17;;;;;;;5.73;3.23;;;17.70;99.90;;;;;;5007786;28;20199;-52
2022/09/23 11:13:34;;;;;;;3.80;2.70;;;17.60;99.90;;;;;;5034761;28;20230;-53
2022/09/23 11:16:19;;;;;;;7.17;3.47;;;17.80;99.90;;;;;;5033592;28;20842;-52
2022/09/23 11:18:54;;;;;;;6.40;4.53;;;17.80;99.90;;;;;;5010196;28;20680;-53
2022/09/23 11:21:24;;;;;;;5.57;3.30;;;17.80;99.90;;;;;;5006571;28;20203;-53
2022/09/23 11:24:06;;;;;;;8.03;3.87;;;18.00;99.90;;;;;;5009293;28;20211;-53
2022/09/23 11:26:52;;;;;;;7.30;3.53;;;18.00;99.90;;;;;;5005950;28;20202;-52
2022/09/23 11:29:46;;;;;;;5.63;3.60;;;18.20;99.90;;;;;;5002615;28;20340;-53
2022/09/23 11:32:43;;;;;;;5.63;2.90;;;18.20;99.90;;;;;;5023338;28;20958;-52
2022/09/23 11:35:35;;;;;;;5.23;3.57;;;18.20;99.90;;;;;;5009212;28;20205;-52
2022/09/23 11:38:28;;;;;;;8.30;3.70;;;18.30;99.90;;;;;;5007823;28;20203;-52
2022/09/23 11:41:01;;;;;;;8.00;3.60;;;18.30;99.90;;;;;;5012824;28;20262;-54
2022/09/23 11:43:33;;;;;;;5.20;3.57;;;18.30;99.90;;;;;;5014846;28;20509;-56
2022/09/23 11:46:27;;;;;;;4.77;2.97;;;18.20;99.90;;;;;;5013952;28;20738;-52
2022/09/23 11:49:36;;;;;;;8.03;3.47;;;18.20;99.90;;;;;;5011644;28;20253;-52
2022/09/23 11:52:27;;;;;;;6.40;3.10;;;18.30;99.90;;;;;;5011062;28;20217;-52
2022/09/23 11:55:06;;;;;;;3.63;3.10;;;18.50;99.90;;;;;;5021975;28;20203;-53
2022/09/23 11:58:03;;;;;;;5.93;2.83;;;18.50;99.90;;;;;;5012882;28;20197;-52
2022/09/23 12:00:37;;;;;;;4.83;3.17;;;18.40;99.90;;;;;;5010036;28;20202;-53
2022/09/23 12:03:17;;;;;;;5.93;3.43;;;18.50;99.90;;;;;;5018216;28;20691;-54
2022/09/23 12:05:47;;;;;;;7.83;3.50;;;18.50;99.90;;;;;;5021090;28;20201;-54
2022/09/23 12:08:31;;;;;;;5.57;3.50;;;18.50;99.90;;;;;;5021418;28;20210;-53
2022/09/23 12:11:22;;;;;;;6.77;3.93;;;18.40;99.90;;;;;;5007679;28;20213;-53
2022/09/23 12:14:08;;;;;;;5.83;4.13;;;18.50;99.90;;;;;;5019520;28;20213;-53
2022/09/23 12:17:05;;;;;;;6.13;3.50;;;18.50;99.90;;;;;;5018192;28;20575;-53
2022/09/23 12:19:45;;;;;;;7.77;3.63;;;18.40;99.90;;;;;;5015663;28;20201;-53
2022/09/23 12:22:23;;;;;;;7.83;4.43;;;18.40;99.90;;;;;;5019678;28;20923;-53
2022/09/23 12:25:09;;;;;;;5.57;3.60;;;18.40;99.90;;;;;;5017659;28;20198;-53
2022/09/23 12:27:44;;;;;;;5.43;3.43;;;18.30;99.90;;;;;;5021624;28;20205;-53
2022/09/23 12:30:19;;;;;;;5.43;3.20;;;18.40;99.90;;;;;;5019175;28;20203;-53
2022/09/23 12:32:46;;;;;;;6.53;3.80;;;18.50;99.90;;;;;;5021726;28;20560;-53
2022/09/23 12:35:30;;;;;;;6.73;3.43;;;18.50;99.90;;;;;;5024509;28;20665;-53
2022/09/23 12:38:00;;;;;;;6.80;3.47;;;18.60;99.90;;;;;;5020619;28;20790;-53
2022/09/23 12:40:39;;;;;;;5.83;3.30;;;18.60;99.90;;;;;;5017729;28;20200;-53
2022/09/23 12:43:18;;;;;;;4.80;3.10;;;18.50;99.90;;;;;;5018332;28;20655;-52
2022/09/23 12:45:46;;;;;;;5.13;2.67;;;18.40;99.90;;;;;;5018457;28;20208;-53
2022/09/23 12:48:16;;;;;;;5.10;2.93;;;18.50;99.90;;;;;;5014876;28;20269;-53
2022/09/23 12:50:55;;;;;;;5.77;3.07;;;18.60;99.90;;;;;;5016936;28;20202;-53
2022/09/23 12:53:34;;;;;;;5.83;3.40;;;18.50;99.90;;;;;;5009214;28;20306;-53
2022/09/23 12:56:14;;;;;;;5.90;3.10;;;18.50;99.90;;;;;;5014692;28;20315;-53
2022/09/23 12:58:43;;;;;;;5.03;3.07;;;18.50;99.90;;;;;;5011156;28;20201;-52
2022/09/23 13:01:13;;;;;;;6.03;3.50;;;18.50;99.90;;;;;;5012132;28;20234;-53
2022/09/23 13:06:51;;;;;;;4.33;3.30;;;18.40;99.90;;;;;;5010137;28;20214;-52
2022/09/23 13:09:31;;;;;;;6.20;3.83;;;18.50;99.90;;;;;;5008552;28;20721;-52
2022/09/23 13:12:01;;;;;;;5.37;3.10;;;18.40;99.90;;;;;;5016722;28;20669;-53
2022/09/23 13:14:31;;;;;;;3.40;3.10;;;18.40;99.90;;;;;;5018825;28;20259;-52
2022/09/23 13:16:59;;;;;;;7.37;3.67;;;18.40;99.90;;;;;;5020693;28;20203;-53
2022/09/23 13:19:26;;;;;;;4.90;3.00;;;18.30;99.90;;;;;;5016548;28;20207;-52
2022/09/23 13:21:53;;;;;;;4.57;3.40;;;18.30;99.90;;;;;;5020467;28;20204;-52
2022/09/23 13:24:19;;;;;;;6.33;4.03;;;18.40;99.90;;;;;;5018695;28;20340;-53
2022/09/23 13:26:49;;;;;;;6.93;3.63;;;18.30;99.90;;;;;;5017315;28;20204;-53
2022/09/23 13:29:22;;;;;;;6.93;4.17;;;18.30;99.90;;;;;;5015728;28;20203;-52
2022/09/23 13:31:50;;;;;;;5.03;3.80;;;18.20;99.90;;;;;;5015713;28;20226;-53